Time;durP1;ratioP1;P1;durP2;ratioP2;P2;SDS_P1;SDS_P2;PMS_P1;PMS_P2;Temp;Humidity;BMP_temperature;BMP_pressure;BME280_temperature;BME280_humidity;BME280_pressure;Samples;Min_cycle;Max_cycle;Signal;HPM_P1;HPM_P2
2023/06/11 00:01:57;;;;;;;2.85;2.42;;;27.30;39.10;;;;;;5044029;28;20343;-63
2023/06/11 00:04:27;;;;;;;3.20;2.63;;;27.30;39.20;;;;;;5046462;28;20021;-64
2023/06/11 00:06:54;;;;;;;3.78;2.97;;;27.30;39.30;;;;;;5023167;28;20052;-63
2023/06/11 00:09:23;;;;;;;3.75;2.80;;;27.30;39.30;;;;;;5024239;28;20044;-66
2023/06/11 00:11:48;;;;;;;3.35;2.92;;;27.30;39.40;;;;;;5043157;28;20118;-67
2023/06/11 00:14:14;;;;;;;3.47;2.53;;;27.30;39.40;;;;;;5040543;28;20025;-60
2023/06/11 00:16:41;;;;;;;2.85;2.55;;;27.20;39.40;;;;;;5041561;28;20021;-63
2023/06/11 00:19:07;;;;;;;2.78;2.58;;;27.30;39.50;;;;;;5041399;28;20036;-64
2023/06/11 00:21:32;;;;;;;3.08;2.78;;;27.30;39.50;;;;;;5044548;28;20021;-65
2023/06/11 00:23:59;;;;;;;3.45;2.90;;;27.20;39.50;;;;;;5044241;28;20029;-61
2023/06/11 00:26:26;;;;;;;4.10;2.53;;;27.30;39.60;;;;;;5043519;28;20036;-63
2023/06/11 00:28:52;;;;;;;3.00;2.72;;;27.20;39.60;;;;;;5042505;28;20084;-64
2023/06/11 00:31:18;;;;;;;3.17;2.53;;;27.30;39.70;;;;;;5024370;28;20416;-63
2023/06/11 00:33:44;;;;;;;3.65;2.83;;;27.20;39.70;;;;;;5043150;28;20120;-63
2023/06/11 00:36:11;;;;;;;3.22;2.92;;;27.20;39.70;;;;;;5011315;28;20108;-62
2023/06/11 00:38:38;;;;;;;3.10;2.63;;;27.20;39.80;;;;;;5026675;28;20432;-63
2023/06/11 00:41:04;;;;;;;3.90;2.78;;;27.20;39.80;;;;;;5045236;28;20068;-67
2023/06/11 00:43:30;;;;;;;4.53;2.78;;;27.20;39.90;;;;;;5042154;28;20106;-65
2023/06/11 00:45:56;;;;;;;3.92;3.00;;;27.20;40.00;;;;;;5027202;28;20033;-63
2023/06/11 00:48:22;;;;;;;2.97;2.63;;;27.20;40.00;;;;;;5042591;28;20626;-63
2023/06/11 00:50:49;;;;;;;2.97;2.67;;;27.20;40.00;;;;;;5043975;28;20057;-65
2023/06/11 00:53:21;;;;;;;3.22;2.65;;;27.20;40.10;;;;;;5025727;28;20350;-66
2023/06/11 00:55:47;;;;;;;3.20;2.90;;;27.20;40.10;;;;;;5045917;28;20025;-62
2023/06/11 00:58:15;;;;;;;3.33;2.83;;;27.20;40.20;;;;;;5043535;28;20114;-66
2023/06/11 01:00:47;;;;;;;3.38;2.75;;;27.20;40.20;;;;;;5023002;28;20029;-64
2023/06/11 01:03:17;;;;;;;4.35;3.00;;;27.20;40.30;;;;;;5044858;28;20021;-62
2023/06/11 01:06:01;;;;;;;5.85;3.13;;;27.20;40.30;;;;;;5044122;28;20057;-62
2023/06/11 01:08:31;;;;;;;2.97;2.58;;;27.20;40.40;;;;;;5021036;28;20085;-65
2023/06/11 01:11:01;;;;;;;3.40;2.40;;;27.10;40.30;;;;;;5025557;28;20116;-65
2023/06/11 01:13:29;;;;;;;3.90;3.10;;;27.10;40.40;;;;;;5023394;28;20025;-65
2023/06/11 01:16:03;;;;;;;3.22;2.72;;;27.10;40.40;;;;;;5012053;28;20041;-65
2023/06/11 01:18:39;;;;;;;3.05;2.67;;;27.10;40.50;;;;;;5008719;28;21856;-66
2023/06/11 01:21:17;;;;;;;3.47;2.80;;;27.10;40.50;;;;;;5026463;28;20025;-64
2023/06/11 01:24:09;;;;;;;3.85;2.90;;;27.10;40.50;;;;;;5007493;28;20471;-63
2023/06/11 01:26:43;;;;;;;3.08;2.70;;;27.10;40.50;;;;;;5025673;28;20036;-64
2023/06/11 01:29:13;;;;;;;3.60;2.92;;;27.10;40.60;;;;;;5025467;28;20024;-62
2023/06/11 01:31:41;;;;;;;4.15;2.83;;;27.10;40.60;;;;;;5023842;28;20052;-63
2023/06/11 01:34:13;;;;;;;4.45;2.88;;;27.10;40.70;;;;;;5022966;28;20029;-64
2023/06/11 01:36:40;;;;;;;4.13;3.00;;;27.10;40.70;;;;;;5027191;28;20024;-67
2023/06/11 01:39:06;;;;;;;3.13;2.65;;;27.00;40.70;;;;;;5025885;28;20073;-62
2023/06/11 01:41:44;;;;;;;3.25;2.95;;;27.10;40.80;;;;;;5025267;28;20524;-66
2023/06/11 01:44:13;;;;;;;3.88;2.60;;;27.00;40.80;;;;;;5023821;28;20112;-63
2023/06/11 01:46:39;;;;;;;4.30;2.90;;;27.00;40.80;;;;;;5043664;28;20036;-64
2023/06/11 01:49:05;;;;;;;3.00;2.70;;;27.00;40.80;;;;;;5027070;28;20083;-65
2023/06/11 01:51:31;;;;;;;3.00;2.67;;;27.00;40.80;;;;;;5022640;28;20025;-65
2023/06/11 01:53:57;;;;;;;3.05;2.75;;;27.00;40.90;;;;;;5026685;28;20044;-65
2023/06/11 01:56:23;;;;;;;3.85;3.03;;;27.00;40.90;;;;;;5042338;28;20120;-66
2023/06/11 01:58:49;;;;;;;3.17;2.88;;;27.00;40.90;;;;;;5025595;28;20179;-64
2023/06/11 02:01:15;;;;;;;5.10;3.35;;;27.00;41.00;;;;;;5026556;28;20121;-61
2023/06/11 02:03:41;;;;;;;3.97;3.10;;;27.00;41.00;;;;;;5024456;28;20037;-64
2023/06/11 02:06:07;;;;;;;3.70;2.97;;;27.00;41.00;;;;;;5044414;28;20170;-64
2023/06/11 02:08:34;;;;;;;2.97;2.63;;;26.90;41.00;;;;;;5021463;28;20460;-65
2023/06/11 02:11:03;;;;;;;3.90;3.00;;;27.00;41.10;;;;;;5044791;28;20029;-63
2023/06/11 02:13:30;;;;;;;3.53;2.92;;;26.90;41.00;;;;;;5043718;28;20098;-64
2023/06/11 02:16:00;;;;;;;3.10;2.80;;;27.00;41.10;;;;;;5028427;28;20025;-64
2023/06/11 02:18:26;;;;;;;4.15;3.03;;;26.90;41.10;;;;;;5017994;28;20037;-64
2023/06/11 02:20:52;;;;;;;3.53;2.83;;;27.00;41.20;;;;;;5028525;28;20106;-64
2023/06/11 02:23:18;;;;;;;3.17;2.80;;;26.90;41.20;;;;;;5026629;28;20069;-64
2023/06/11 02:25:44;;;;;;;4.55;2.70;;;26.90;41.20;;;;;;5028949;28;20052;-65
2023/06/11 02:28:11;;;;;;;3.53;2.90;;;26.90;41.20;;;;;;5031145;28;20025;-62
2023/06/11 02:30:37;;;;;;;3.10;2.80;;;26.90;41.20;;;;;;5029751;28;20044;-64
2023/06/11 02:33:04;;;;;;;3.28;2.88;;;26.90;41.30;;;;;;5026705;28;20025;-65
2023/06/11 02:35:31;;;;;;;3.40;2.80;;;26.90;41.30;;;;;;5026492;28;20112;-67
2023/06/11 02:37:57;;;;;;;3.65;2.70;;;26.90;41.30;;;;;;5029680;28;20361;-66
2023/06/11 02:40:23;;;;;;;3.55;3.00;;;26.90;41.30;;;;;;5026942;28;20037;-63
2023/06/11 02:42:49;;;;;;;3.80;2.97;;;26.90;42.00;;;;;;5043030;28;20045;-65
2023/06/11 02:45:15;;;;;;;3.88;3.20;;;26.90;41.40;;;;;;5027232;28;20036;-64
2023/06/11 02:47:41;;;;;;;3.90;3.00;;;26.90;41.40;;;;;;5045406;28;20428;-65
2023/06/11 02:50:07;;;;;;;2.92;2.60;;;26.90;41.40;;;;;;5038192;28;20175;-65
2023/06/11 02:52:33;;;;;;;3.33;2.90;;;26.90;41.40;;;;;;5022722;28;20055;-64
2023/06/11 02:54:59;;;;;;;3.60;2.80;;;26.90;41.40;;;;;;5029796;28;20211;-63
2023/06/11 02:57:24;;;;;;;3.47;2.75;;;26.80;41.40;;;;;;5045052;28;20029;-64
2023/06/11 02:59:50;;;;;;;3.38;2.80;;;26.80;41.30;;;;;;5028108;28;20197;-65
2023/06/11 03:02:17;;;;;;;4.93;2.95;;;26.80;41.30;;;;;;5018925;28;20026;-66
2023/06/11 03:04:43;;;;;;;3.10;2.78;;;26.80;41.40;;;;;;5028234;28;20028;-68
2023/06/11 03:07:09;;;;;;;3.47;2.83;;;26.90;41.40;;;;;;5027523;28;20055;-63
2023/06/11 03:09:35;;;;;;;3.15;2.60;;;26.90;41.40;;;;;;5027882;28;20421;-67
2023/06/11 03:12:01;;;;;;;4.90;2.90;;;26.80;41.30;;;;;;5043194;28;20032;-64
2023/06/11 03:14:27;;;;;;;2.95;2.60;;;26.80;41.30;;;;;;5026223;28;20460;-63
2023/06/11 03:16:53;;;;;;;3.67;3.10;;;26.80;41.30;;;;;;5043178;28;20085;-62
2023/06/11 03:19:19;;;;;;;3.28;2.67;;;26.80;41.40;;;;;;5028329;28;20024;-64
2023/06/11 03:21:46;;;;;;;3.13;2.55;;;26.80;41.40;;;;;;5025629;28;20043;-64
2023/06/11 03:24:13;;;;;;;3.17;2.63;;;26.80;41.40;;;;;;5035371;28;20044;-65
2023/06/11 03:26:39;;;;;;;3.95;3.03;;;26.80;41.30;;;;;;5028026;28;20122;-64
2023/06/11 03:29:05;;;;;;;3.15;2.85;;;26.80;41.30;;;;;;5026264;28;20033;-63
2023/06/11 03:31:40;;;;;;;3.80;2.80;;;26.80;41.30;;;;;;5025478;28;20131;-67
2023/06/11 03:34:06;;;;;;;3.78;2.80;;;26.80;41.40;;;;;;5027207;28;20319;-64
2023/06/11 03:36:32;;;;;;;4.88;3.40;;;26.80;41.40;;;;;;5026722;28;20424;-64
2023/06/11 03:38:59;;;;;;;3.05;2.75;;;26.70;41.30;;;;;;5021090;28;20693;-66
2023/06/11 03:41:25;;;;;;;3.00;2.70;;;26.70;41.30;;;;;;5038653;28;20024;-65
2023/06/11 03:43:52;;;;;;;3.95;2.60;;;26.70;41.30;;;;;;4993888;28;20073;-62
2023/06/11 03:46:19;;;;;;;3.72;2.70;;;26.70;41.30;;;;;;5007058;28;20033;-63
2023/06/11 03:48:45;;;;;;;3.08;2.80;;;26.70;41.30;;;;;;4989397;28;20102;-65
2023/06/11 03:51:11;;;;;;;4.90;2.95;;;26.70;41.40;;;;;;5006439;28;20116;-62
2023/06/11 03:53:37;;;;;;;3.08;2.70;;;26.70;41.40;;;;;;5005252;28;20437;-66
2023/06/11 03:56:03;;;;;;;3.42;2.97;;;26.70;41.40;;;;;;5006613;28;20113;-67
2023/06/11 03:58:29;;;;;;;3.63;2.90;;;26.70;41.40;;;;;;5004626;28;20069;-65
2023/06/11 04:00:55;;;;;;;4.47;3.03;;;26.60;41.30;;;;;;5003819;28;20136;-66
2023/06/11 04:03:21;;;;;;;3.83;2.85;;;26.70;41.40;;;;;;5005370;28;20117;-64
2023/06/11 04:05:47;;;;;;;3.58;3.22;;;26.70;41.40;;;;;;5006722;28;20037;-67
2023/06/11 04:08:13;;;;;;;2.90;2.55;;;26.60;41.30;;;;;;5003208;28;20121;-64
2023/06/11 04:10:41;;;;;;;3.42;2.88;;;26.60;41.40;;;;;;5006187;28;20034;-65
2023/06/11 04:13:07;;;;;;;3.97;2.78;;;26.60;41.40;;;;;;5006254;28;20577;-65
2023/06/11 04:15:33;;;;;;;2.65;2.45;;;26.60;41.40;;;;;;5005488;28;20061;-65
2023/06/11 04:18:03;;;;;;;2.92;2.60;;;26.60;41.40;;;;;;5002405;28;20089;-64
2023/06/11 04:20:29;;;;;;;4.18;2.53;;;26.60;41.40;;;;;;5002920;28;20030;-63
2023/06/11 04:22:57;;;;;;;3.28;2.63;;;26.60;41.50;;;;;;5004646;28;20022;-65
2023/06/11 04:25:24;;;;;;;3.03;2.72;;;26.60;41.50;;;;;;5004195;28;20461;-64
2023/06/11 04:27:52;;;;;;;3.92;2.83;;;26.60;41.50;;;;;;5004447;28;20095;-64
2023/06/11 04:30:20;;;;;;;3.42;2.63;;;26.60;41.50;;;;;;5005437;28;20389;-62
2023/06/11 04:32:54;;;;;;;2.92;2.60;;;26.60;41.50;;;;;;5004726;28;20157;-65
2023/06/11 04:35:26;;;;;;;4.38;2.63;;;26.60;41.50;;;;;;5002842;28;20545;-66
2023/06/11 04:37:55;;;;;;;3.13;2.63;;;26.60;41.50;;;;;;5005634;28;20041;-65
2023/06/11 04:40:24;;;;;;;3.40;2.72;;;26.60;41.50;;;;;;5003452;28;20029;-63
2023/06/11 04:42:51;;;;;;;2.95;2.60;;;26.60;41.50;;;;;;5005397;28;21793;-64
2023/06/11 04:45:18;;;;;;;4.45;2.78;;;26.60;41.50;;;;;;5004177;28;20032;-64
2023/06/11 04:47:48;;;;;;;3.03;2.70;;;26.60;41.60;;;;;;5004529;28;20017;-67
2023/06/11 04:50:20;;;;;;;3.45;2.80;;;26.60;41.60;;;;;;5002697;28;20125;-66
2023/06/11 04:52:49;;;;;;;3.30;3.00;;;26.60;41.60;;;;;;4991697;28;20023;-64
2023/06/11 04:55:16;;;;;;;3.78;2.80;;;26.60;41.60;;;;;;5000531;28;20099;-63
2023/06/11 04:57:42;;;;;;;3.45;2.85;;;26.50;41.60;;;;;;5000248;28;20437;-65
2023/06/11 05:00:10;;;;;;;3.00;2.40;;;26.60;41.80;;;;;;5002396;28;20082;-67
2023/06/11 05:02:38;;;;;;;3.30;2.65;;;26.60;41.70;;;;;;4988798;28;20133;-64
2023/06/11 05:05:06;;;;;;;3.88;2.50;;;26.60;41.70;;;;;;5003359;28;20100;-62
2023/06/11 05:07:33;;;;;;;2.90;2.60;;;26.60;41.80;;;;;;4994517;28;20119;-66
2023/06/11 05:09:59;;;;;;;3.10;2.80;;;26.60;41.80;;;;;;4995695;28;20441;-66
2023/06/11 05:12:26;;;;;;;3.95;2.70;;;26.60;41.80;;;;;;4988455;28;20350;-65
2023/06/11 05:14:52;;;;;;;3.20;2.88;;;26.60;41.80;;;;;;5002319;28;20488;-62
2023/06/11 05:17:18;;;;;;;4.00;3.05;;;26.50;41.80;;;;;;5002199;28;20112;-64
2023/06/11 05:19:46;;;;;;;3.33;2.90;;;26.60;41.80;;;;;;5004682;28;20066;-65
2023/06/11 05:22:12;;;;;;;3.00;2.70;;;26.50;41.80;;;;;;5001901;28;20042;-65
2023/06/11 05:24:41;;;;;;;3.65;3.15;;;26.50;41.80;;;;;;5003789;28;20029;-66
2023/06/11 05:27:08;;;;;;;5.03;2.78;;;26.60;41.90;;;;;;5001191;28;20046;-63
2023/06/11 05:29:35;;;;;;;3.67;2.92;;;26.50;41.80;;;;;;5004366;28;20022;-64
2023/06/11 05:32:02;;;;;;;5.25;3.05;;;26.60;42.00;;;;;;5004536;28;20153;-66
2023/06/11 05:34:30;;;;;;;4.22;3.00;;;26.50;41.90;;;;;;5002819;28;20049;-65
2023/06/11 05:36:59;;;;;;;3.30;3.00;;;26.50;41.90;;;;;;5003428;28;20077;-63
2023/06/11 05:39:25;;;;;;;3.13;2.80;;;26.50;42.00;;;;;;5006438;28;20406;-66
2023/06/11 05:41:51;;;;;;;3.00;2.70;;;26.50;42.00;;;;;;5001381;28;20117;-65
2023/06/11 05:44:19;;;;;;;3.53;2.95;;;26.50;42.00;;;;;;5020629;28;20353;-62
2023/06/11 05:46:45;;;;;;;2.78;2.58;;;26.50;42.00;;;;;;5022422;28;20054;-64
2023/06/11 05:49:12;;;;;;;3.40;3.00;;;26.50;42.10;;;;;;5024214;28;20049;-66
2023/06/11 05:51:37;;;;;;;2.80;2.60;;;26.50;42.70;;;;;;5023392;28;20044;-63
2023/06/11 05:54:05;;;;;;;4.43;3.20;;;26.50;42.10;;;;;;5025469;28;20054;-62
2023/06/11 05:56:33;;;;;;;3.15;2.78;;;26.50;42.20;;;;;;5021145;28;20378;-63
2023/06/11 05:58:59;;;;;;;3.35;2.90;;;26.50;42.20;;;;;;5024417;28;20029;-65
2023/06/11 06:01:28;;;;;;;8.32;3.03;;;26.50;42.20;;;;;;5024850;28;20025;-63
2023/06/11 06:03:54;;;;;;;3.45;3.10;;;26.50;42.30;;;;;;5016609;28;20044;-64
2023/06/11 06:06:20;;;;;;;4.03;2.72;;;26.50;42.30;;;;;;5027766;28;20037;-62
2023/06/11 06:08:46;;;;;;;3.45;2.90;;;26.50;42.30;;;;;;5023608;28;20033;-65
2023/06/11 06:11:12;;;;;;;4.95;2.95;;;26.50;42.30;;;;;;5023710;28;20123;-64
2023/06/11 06:13:39;;;;;;;2.72;2.50;;;26.50;42.40;;;;;;5025383;28;20018;-66
2023/06/11 06:16:07;;;;;;;3.05;2.70;;;26.50;42.40;;;;;;5024293;28;20116;-63
2023/06/11 06:18:35;;;;;;;4.72;2.80;;;26.50;42.40;;;;;;5021634;28;20029;-66
2023/06/11 06:21:01;;;;;;;5.35;3.08;;;26.50;42.50;;;;;;5022594;28;20017;-64
2023/06/11 06:23:26;;;;;;;3.28;2.97;;;26.40;42.40;;;;;;5025088;28;20108;-62
2023/06/11 06:26:07;;;;;;;3.88;3.20;;;26.50;42.60;;;;;;5027531;28;20033;-62
2023/06/11 06:28:35;;;;;;;2.88;2.50;;;26.50;42.60;;;;;;5024154;28;20341;-64
2023/06/11 06:31:02;;;;;;;4.60;3.17;;;26.50;42.70;;;;;;5026339;28;20033;-67
2023/06/11 06:33:34;;;;;;;3.40;3.05;;;26.50;42.70;;;;;;5022643;28;20042;-64
2023/06/11 06:36:00;;;;;;;3.35;2.92;;;26.50;42.80;;;;;;5025717;28;20032;-62
2023/06/11 06:38:27;;;;;;;5.90;3.28;;;26.50;42.90;;;;;;5026902;28;20037;-62
2023/06/11 06:40:52;;;;;;;3.60;3.15;;;26.50;43.00;;;;;;5009030;28;20036;-64
2023/06/11 06:43:18;;;;;;;3.60;3.00;;;26.50;43.00;;;;;;5013757;28;20041;-62
2023/06/11 06:45:53;;;;;;;3.92;2.72;;;26.50;43.10;;;;;;5005488;28;20125;-64
2023/06/11 06:48:25;;;;;;;4.03;3.03;;;26.50;43.10;;;;;;5003955;28;20093;-66
2023/06/11 06:50:52;;;;;;;4.20;3.25;;;26.50;43.20;;;;;;5003860;28;20422;-62
2023/06/11 06:53:18;;;;;;;3.25;2.95;;;26.50;43.30;;;;;;5007747;28;20156;-64
2023/06/11 06:55:45;;;;;;;4.00;3.33;;;26.50;43.30;;;;;;5007119;28;20041;-65
2023/06/11 06:58:11;;;;;;;4.25;3.20;;;26.50;43.40;;;;;;5005712;28;20090;-63
2023/06/11 07:00:37;;;;;;;5.13;2.85;;;26.50;43.40;;;;;;4993207;28;20112;-64
2023/06/11 07:03:03;;;;;;;3.53;2.90;;;26.50;43.50;;;;;;4990824;28;20040;-62
2023/06/11 07:05:29;;;;;;;3.30;3.00;;;26.50;43.60;;;;;;5010058;28;20030;-64
2023/06/11 07:07:55;;;;;;;3.47;3.17;;;26.50;43.70;;;;;;5005959;28;20464;-66
2023/06/11 07:10:22;;;;;;;3.60;3.30;;;26.50;43.70;;;;;;5020385;28;20030;-62
2023/06/11 07:12:50;;;;;;;3.67;2.95;;;26.50;43.80;;;;;;5009822;28;20034;-65
2023/06/11 07:15:16;;;;;;;4.00;3.38;;;26.50;43.80;;;;;;5009688;28;20033;-62
2023/06/11 07:17:42;;;;;;;5.28;2.85;;;26.50;43.80;;;;;;5016043;28;20105;-66
2023/06/11 07:20:09;;;;;;;3.60;3.08;;;26.50;43.90;;;;;;4993348;28;20026;-64
2023/06/11 07:22:36;;;;;;;3.72;3.08;;;26.50;43.90;;;;;;5009348;28;20030;-66
2023/06/11 07:25:03;;;;;;;4.10;3.00;;;26.60;44.00;;;;;;5009844;28;20061;-66
2023/06/11 07:27:29;;;;;;;5.78;3.20;;;26.50;44.00;;;;;;5004599;28;20022;-63
2023/06/11 07:29:56;;;;;;;3.40;3.10;;;26.60;44.00;;;;;;4991048;28;20118;-67
2023/06/11 07:32:22;;;;;;;3.08;2.83;;;26.60;44.00;;;;;;5006078;28;20039;-64
2023/06/11 07:34:48;;;;;;;3.00;2.60;;;26.60;44.10;;;;;;5008584;28;20469;-63
2023/06/11 07:37:15;;;;;;;3.42;3.00;;;26.60;44.00;;;;;;5008601;28;20064;-64
2023/06/11 07:39:41;;;;;;;3.70;3.17;;;26.60;44.00;;;;;;5009863;28;20061;-66
2023/06/11 07:42:08;;;;;;;3.92;3.17;;;26.60;44.00;;;;;;5010274;28;20036;-63
2023/06/11 07:44:35;;;;;;;4.30;3.33;;;26.60;44.00;;;;;;5031243;28;20139;-63
2023/06/11 07:47:02;;;;;;;3.65;3.33;;;26.60;44.00;;;;;;5031664;28;20136;-65
2023/06/11 07:49:28;;;;;;;4.95;3.53;;;26.60;44.00;;;;;;5015338;28;20040;-62
2023/06/11 07:51:55;;;;;;;4.10;3.35;;;26.60;44.00;;;;;;5031663;28;20317;-65
2023/06/11 07:54:21;;;;;;;4.45;3.67;;;26.60;43.90;;;;;;5031365;28;20119;-64
2023/06/11 07:56:47;;;;;;;3.55;3.25;;;26.70;44.10;;;;;;5031966;28;20109;-66
2023/06/11 07:59:14;;;;;;;4.50;3.92;;;26.70;44.10;;;;;;5048420;28;20040;-61
2023/06/11 08:01:40;;;;;;;3.97;3.58;;;26.70;44.80;;;;;;5033474;28;20126;-61
2023/06/11 08:04:06;;;;;;;4.18;3.78;;;26.70;44.10;;;;;;5051975;28;20032;-62
2023/06/11 08:06:33;;;;;;;4.57;4.15;;;26.70;44.10;;;;;;5050136;28;20037;-64
2023/06/11 08:08:59;;;;;;;4.07;3.67;;;26.70;44.20;;;;;;5046163;28;20425;-64
2023/06/11 08:11:25;;;;;;;7.72;3.67;;;26.70;44.10;;;;;;5002657;28;20029;-67
2023/06/11 08:13:51;;;;;;;4.07;3.50;;;26.80;44.20;;;;;;5051167;28;20048;-66
2023/06/11 08:16:18;;;;;;;4.32;3.92;;;26.80;44.20;;;;;;5016324;28;20052;-65
2023/06/11 08:18:44;;;;;;;4.30;3.78;;;26.80;44.20;;;;;;5049309;28;20440;-65
2023/06/11 08:21:09;;;;;;;4.82;3.35;;;26.80;44.20;;;;;;5013628;28;20039;-67
2023/06/11 08:23:38;;;;;;;7.57;3.72;;;26.80;44.20;;;;;;5031565;28;20052;-63
2023/06/11 08:26:05;;;;;;;5.18;3.45;;;26.80;44.20;;;;;;5013810;28;20325;-69
2023/06/11 08:28:31;;;;;;;3.95;3.47;;;26.80;44.20;;;;;;5019708;28;20182;-67
2023/06/11 08:30:57;;;;;;;4.13;3.17;;;26.80;44.20;;;;;;5033291;28;20043;-67
2023/06/11 08:33:24;;;;;;;4.18;3.33;;;26.90;44.30;;;;;;5031159;28;20021;-63
2023/06/11 08:35:50;;;;;;;4.35;3.25;;;26.90;44.90;;;;;;5033531;28;20495;-68
2023/06/11 08:38:16;;;;;;;3.90;3.15;;;26.90;44.20;;;;;;5051216;28;20077;-66
2023/06/11 08:40:42;;;;;;;3.38;3.08;;;26.90;44.10;;;;;;5016904;28;20041;-66
2023/06/11 08:43:09;;;;;;;3.78;3.45;;;26.90;44.10;;;;;;5049274;28;20045;-65
2023/06/11 08:45:35;;;;;;;3.88;3.45;;;26.90;44.10;;;;;;5050851;28;20106;-67
2023/06/11 08:48:03;;;;;;;3.25;2.80;;;26.90;44.00;;;;;;5032831;28;20101;-64
2023/06/11 08:50:33;;;;;;;3.30;3.00;;;26.90;44.00;;;;;;5046780;28;20040;-67
2023/06/11 08:53:02;;;;;;;4.25;3.10;;;26.90;43.90;;;;;;5031118;28;20033;-66
2023/06/11 08:55:32;;;;;;;3.95;3.35;;;26.90;43.90;;;;;;5041819;28;20040;-68
2023/06/11 08:57:58;;;;;;;3.50;2.83;;;26.90;43.90;;;;;;5033308;28;20077;-68
2023/06/11 09:00:25;;;;;;;3.65;3.20;;;26.90;43.80;;;;;;5043640;28;20105;-69
2023/06/11 09:02:52;;;;;;;3.55;3.00;;;27.00;43.90;;;;;;5042564;28;20478;-67
2023/06/11 09:05:19;;;;;;;3.13;2.83;;;27.00;43.90;;;;;;5021616;28;20381;-67
2023/06/11 09:07:49;;;;;;;3.53;3.00;;;27.00;43.90;;;;;;5034072;28;20301;-63
2023/06/11 09:10:16;;;;;;;3.75;3.17;;;27.00;43.80;;;;;;5031201;28;20025;-68
2023/06/11 09:12:49;;;;;;;3.17;2.88;;;27.00;43.80;;;;;;5044461;28;20041;-70
2023/06/11 09:15:17;;;;;;;;;;;27.00;43.80;;;;;;5013256;28;20021;-66
2023/06/11 09:17:48;;;;;;;3.20;2.90;;;27.10;43.90;;;;;;5043866;28;19909;-69
2023/06/11 09:20:16;;;;;;;3.78;2.78;;;27.10;43.90;;;;;;5023620;28;20044;-69
2023/06/11 09:22:44;;;;;;;5.25;3.20;;;27.20;44.00;;;;;;5039252;28;20030;-68
2023/06/11 09:25:17;;;;;;;3.80;3.13;;;27.30;44.00;;;;;;5025998;28;20406;-67
2023/06/11 09:27:47;;;;;;;5.45;3.40;;;27.40;43.90;;;;;;5044867;28;20047;-67
2023/06/11 09:30:16;;;;;;;6.22;3.67;;;27.50;43.90;;;;;;5013283;28;20033;-65
2023/06/11 09:32:45;;;;;;;6.88;4.50;;;27.60;43.80;;;;;;5048139;28;20025;-65
2023/06/11 09:35:13;;;;;;;4.93;3.55;;;27.70;43.70;;;;;;5028119;28;20352;-64
2023/06/11 09:37:40;;;;;;;5.15;3.53;;;27.80;43.70;;;;;;5028359;28;20128;-64
2023/06/11 09:40:10;;;;;;;6.38;3.88;;;27.90;43.60;;;;;;5031339;28;20132;-65
2023/06/11 09:42:37;;;;;;;9.00;4.63;;;27.90;43.50;;;;;;5049306;28;20100;-65
2023/06/11 09:45:03;;;;;;;6.10;3.80;;;28.00;43.70;;;;;;5055150;28;20463;-64
2023/06/11 09:47:35;;;;;;;8.15;5.50;;;28.00;43.70;;;;;;5033489;28;20057;-67
2023/06/11 09:50:02;;;;;;;7.80;5.18;;;28.00;43.80;;;;;;5046835;28;20038;-66
2023/06/11 09:52:29;;;;;;;9.70;6.25;;;28.00;44.10;;;;;;5030667;28;20025;-64
2023/06/11 09:54:56;;;;;;;8.10;5.28;;;28.00;44.40;;;;;;5028766;28;20112;-63
2023/06/11 09:57:22;;;;;;;8.65;5.53;;;28.00;44.60;;;;;;5030909;28;20048;-63
2023/06/11 09:59:48;;;;;;;7.22;5.07;;;28.10;44.80;;;;;;5024146;28;20116;-65
2023/06/11 10:02:14;;;;;;;12.60;6.68;;;28.10;45.00;;;;;;5046021;28;20381;-69
2023/06/11 10:04:42;;;;;;;13.15;7.28;;;28.10;45.10;;;;;;5046362;28;20128;-67
2023/06/11 10:07:10;;;;;;;14.50;6.95;;;28.10;45.20;;;;;;5024105;28;20120;-65
2023/06/11 10:09:39;;;;;;;11.95;7.03;;;28.10;45.20;;;;;;5045086;28;20032;-64
2023/06/11 10:12:06;;;;;;;9.68;6.25;;;28.10;45.10;;;;;;5047960;28;20460;-62
2023/06/11 10:14:33;;;;;;;10.02;6.18;;;28.10;44.90;;;;;;5047407;28;20076;-67
2023/06/11 10:17:02;;;;;;;13.60;7.05;;;28.10;45.00;;;;;;5043096;28;20108;-61
2023/06/11 10:19:37;;;;;;;10.35;6.28;;;28.10;45.40;;;;;;5041365;28;20044;-64
2023/06/11 10:22:03;;;;;;;12.52;6.72;;;28.10;45.60;;;;;;5025865;28;20067;-66
2023/06/11 10:24:29;;;;;;;11.73;7.18;;;28.10;45.70;;;;;;5043817;28;20032;-64
2023/06/11 10:27:13;;;;;;;11.05;7.10;;;28.10;45.80;;;;;;5046323;28;20064;-65
2023/06/11 10:29:51;;;;;;;15.18;7.20;;;28.10;46.00;;;;;;5047810;28;20082;-64
2023/06/11 10:32:19;;;;;;;10.25;6.55;;;28.10;46.10;;;;;;5043239;28;20025;-68
2023/06/11 10:34:54;;;;;;;13.20;7.22;;;28.10;46.10;;;;;;5025729;28;20049;-67
2023/06/11 10:37:29;;;;;;;11.90;6.68;;;28.10;46.10;;;;;;5047919;28;20064;-63
2023/06/11 10:39:56;;;;;;;9.18;6.40;;;28.10;45.90;;;;;;5046679;28;20060;-64
2023/06/11 10:42:25;;;;;;;7.28;5.72;;;28.10;45.80;;;;;;5022747;28;20029;-64
2023/06/11 10:44:59;;;;;;;8.45;5.13;;;28.10;45.50;;;;;;5048867;28;20096;-64
2023/06/11 10:47:26;;;;;;;7.30;4.93;;;28.10;45.10;;;;;;5026366;28;20416;-63
2023/06/11 10:50:03;;;;;;;8.25;4.80;;;28.10;45.00;;;;;;5046684;28;20495;-68
2023/06/11 10:52:29;;;;;;;7.95;5.13;;;28.10;44.70;;;;;;5029953;28;20025;-67
2023/06/11 10:54:57;;;;;;;5.88;4.35;;;28.00;44.50;;;;;;5045489;28;20097;-66
2023/06/11 10:57:25;;;;;;;6.20;4.40;;;28.00;44.30;;;;;;5046130;28;20033;-65
2023/06/11 10:59:52;;;;;;;6.90;3.97;;;28.00;44.10;;;;;;5044117;28;20039;-64
2023/06/11 11:02:18;;;;;;;4.68;3.88;;;28.10;44.10;;;;;;5024248;28;20481;-66
2023/06/11 11:04:53;;;;;;;6.32;4.30;;;28.00;44.10;;;;;;5024387;28;20041;-66
2023/06/11 11:07:19;;;;;;;4.72;3.60;;;28.00;43.90;;;;;;5020664;28;20025;-65
2023/06/11 11:09:45;;;;;;;3.97;3.40;;;28.00;43.90;;;;;;5043373;28;20339;-63
2023/06/11 11:12:11;;;;;;;5.97;3.33;;;28.00;43.70;;;;;;5024201;28;20180;-61
2023/06/11 11:14:37;;;;;;;5.85;3.40;;;28.00;43.60;;;;;;5038201;28;20056;-67
2023/06/11 11:17:04;;;;;;;4.43;3.20;;;28.10;43.60;;;;;;5025439;28;20033;-66
2023/06/11 11:19:30;;;;;;;4.43;3.30;;;28.10;43.50;;;;;;5044960;28;20117;-65
2023/06/11 11:21:56;;;;;;;3.67;3.20;;;28.00;43.30;;;;;;5045709;28;20397;-67
2023/06/11 11:24:23;;;;;;;4.68;3.05;;;28.00;43.00;;;;;;5050655;28;20037;-65
2023/06/11 11:26:49;;;;;;;4.55;3.22;;;28.00;42.80;;;;;;5029791;28;20164;-65
2023/06/11 11:29:15;;;;;;;4.05;3.17;;;28.00;42.70;;;;;;5044233;28;20308;-65
2023/06/11 11:31:42;;;;;;;3.55;2.60;;;28.00;42.50;;;;;;5040769;28;20044;-66
2023/06/11 11:34:08;;;;;;;4.43;2.92;;;28.00;42.30;;;;;;5053494;28;20432;-66
2023/06/11 11:36:35;;;;;;;4.28;2.72;;;28.00;42.00;;;;;;5029248;28;20115;-67
2023/06/11 11:39:11;;;;;;;3.17;2.72;;;28.10;41.80;;;;;;5050029;28;20029;-66
2023/06/11 11:41:50;;;;;;;4.97;3.13;;;28.00;41.60;;;;;;5042310;28;20033;-64
2023/06/11 11:44:17;;;;;;;3.78;2.70;;;28.10;41.60;;;;;;5051911;28;20095;-66
2023/06/11 11:46:43;;;;;;;3.05;2.30;;;28.00;42.10;;;;;;5043380;28;20044;-66
2023/06/11 11:49:10;;;;;;;3.45;2.78;;;28.10;41.40;;;;;;5041302;28;20016;-64
2023/06/11 11:51:41;;;;;;;3.28;2.70;;;28.10;41.10;;;;;;5019908;28;20077;-64
2023/06/11 11:54:07;;;;;;;3.38;2.78;;;28.10;41.10;;;;;;5044011;28;21395;-67
2023/06/11 11:56:35;;;;;;;4.30;2.97;;;28.10;41.10;;;;;;5044193;28;20116;-65
2023/06/11 11:59:01;;;;;;;2.75;2.47;;;28.10;41.00;;;;;;5047338;28;20056;-64
2023/06/11 12:01:32;;;;;;;3.42;2.60;;;28.10;40.90;;;;;;5043622;28;20020;-64
2023/06/11 12:04:00;;;;;;;4.90;2.50;;;28.00;40.60;;;;;;5043809;28;20029;-66
2023/06/11 12:06:27;;;;;;;3.65;2.60;;;28.10;40.60;;;;;;5042556;28;20061;-64
2023/06/11 12:08:53;;;;;;;3.08;2.58;;;28.10;40.60;;;;;;5037690;28;20324;-63
2023/06/11 12:11:26;;;;;;;3.25;2.72;;;28.10;40.40;;;;;;5028706;28;20107;-64
2023/06/11 12:13:52;;;;;;;3.47;2.67;;;28.10;40.20;;;;;;5035751;28;20084;-64
2023/06/11 12:16:22;;;;;;;3.63;2.80;;;28.10;40.00;;;;;;5047623;28;20097;-65
2023/06/11 12:18:48;;;;;;;3.38;2.60;;;28.10;39.80;;;;;;5041218;28;20114;-67
2023/06/11 12:21:14;;;;;;;3.70;2.63;;;28.10;39.90;;;;;;5026982;28;20115;-66
2023/06/11 12:23:40;;;;;;;2.70;2.22;;;28.10;39.70;;;;;;5039680;28;20116;-67
2023/06/11 12:26:07;;;;;;;3.10;2.45;;;28.10;39.60;;;;;;5016662;28;20107;-66
2023/06/11 12:28:33;;;;;;;2.85;2.47;;;28.10;39.40;;;;;;5025208;28;20017;-66
2023/06/11 12:30:59;;;;;;;3.28;2.65;;;28.20;39.40;;;;;;5024178;28;20067;-65
2023/06/11 12:33:25;;;;;;;4.03;2.58;;;28.10;39.40;;;;;;5041076;28;20128;-64
2023/06/11 12:35:51;;;;;;;2.55;2.35;;;28.20;39.50;;;;;;5044322;28;20040;-66
2023/06/11 12:38:18;;;;;;;5.60;2.58;;;28.20;39.50;;;;;;5044367;28;20110;-65
2023/06/11 12:40:44;;;;;;;3.40;2.50;;;28.20;39.60;;;;;;5045237;28;20021;-63
2023/06/11 12:43:10;;;;;;;3.30;2.40;;;28.20;39.70;;;;;;5023432;28;20345;-65
2023/06/11 12:45:37;;;;;;;3.08;2.42;;;28.20;39.70;;;;;;5045441;28;20032;-66
2023/06/11 12:48:04;;;;;;;2.80;2.50;;;28.30;39.90;;;;;;5040087;28;20028;-65